createdAt,value
2022-08-31T00:00:01.178Z,1021.99
2022-08-31T00:01:01.328Z,1021.99
2022-08-31T00:02:01.556Z,1021.97
2022-08-31T00:03:01.656Z,1021.94
2022-08-31T00:04:01.808Z,1021.97
2022-08-31T00:05:02.150Z,1021.96
2022-08-31T00:06:02.189Z,1021.90
2022-08-31T00:07:02.351Z,1021.93
2022-08-31T00:08:02.521Z,1021.92
2022-08-31T00:09:02.680Z,1021.92
2022-08-31T00:10:02.844Z,1021.88
2022-08-31T00:11:03.004Z,1021.83
2022-08-31T00:12:03.186Z,1021.83
2022-08-31T00:13:03.363Z,1021.84
2022-08-31T00:14:03.509Z,1021.85
2022-08-31T00:15:03.692Z,1021.85
2022-08-31T00:16:03.895Z,1021.83
2022-08-31T00:17:04.053Z,1021.89
2022-08-31T00:18:11.235Z,1021.89
2022-08-31T00:19:04.392Z,1021.91
2022-08-31T00:20:04.557Z,1021.95
2022-08-31T00:21:04.769Z,1021.94
2022-08-31T00:22:04.910Z,1021.97
2022-08-31T00:23:05.066Z,1021.96
2022-08-31T00:24:05.257Z,1021.96
2022-08-31T00:25:05.417Z,1021.95
2022-08-31T00:26:05.612Z,1021.91
2022-08-31T00:27:05.740Z,1021.90
2022-08-31T00:28:05.899Z,1021.89
2022-08-31T00:29:06.049Z,1021.89
2022-08-31T00:30:06.243Z,1021.89
2022-08-31T00:31:06.417Z,1021.86
2022-08-31T00:32:06.598Z,1021.86
2022-08-31T00:33:06.757Z,1021.81
2022-08-31T00:34:06.919Z,1021.84
2022-08-31T00:35:07.090Z,1021.83
2022-08-31T00:36:07.260Z,1021.83
2022-08-31T00:37:07.421Z,1021.89
2022-08-31T00:38:07.577Z,1021.88
2022-08-31T00:39:07.766Z,1021.90
2022-08-31T00:40:07.980Z,1021.94
2022-08-31T00:41:08.084Z,1021.95
2022-08-31T00:42:08.241Z,1021.95
2022-08-31T00:43:08.432Z,1021.99
2022-08-31T00:44:08.583Z,1021.97
2022-08-31T00:45:08.784Z,1021.98
2022-08-31T00:46:09.012Z,1022.01
2022-08-31T00:47:09.084Z,1022.00
2022-08-31T00:48:09.235Z,1022.01
2022-08-31T00:49:09.397Z,1022.02
2022-08-31T00:50:09.595Z,1022.04
2022-08-31T00:51:09.756Z,1022.06
2022-08-31T00:52:09.936Z,1022.10
2022-08-31T00:53:10.100Z,1022.08
2022-08-31T00:54:10.256Z,1022.11
2022-08-31T00:55:10.433Z,1022.09
2022-08-31T00:56:10.587Z,1022.08
2022-08-31T00:57:10.747Z,1022.09
2022-08-31T00:58:10.970Z,1022.12
2022-08-31T00:59:11.088Z,1022.08
2022-08-31T01:00:11.249Z,1022.11
2022-08-31T01:01:11.470Z,1022.14
2022-08-31T01:02:11.671Z,1022.14
2022-08-31T01:03:11.836Z,1022.20
2022-08-31T01:04:11.992Z,1022.18
2022-08-31T01:05:12.149Z,1022.15
2022-08-31T01:06:12.308Z,1022.19
2022-08-31T01:07:12.462Z,1022.13
2022-08-31T01:08:12.672Z,1022.16
2022-08-31T01:09:12.831Z,1022.15
2022-08-31T01:10:13.024Z,1022.21
2022-08-31T01:11:13.182Z,1022.20
2022-08-31T01:12:13.344Z,1022.22
2022-08-31T01:13:13.607Z,1022.23
2022-08-31T01:14:13.674Z,1022.22
2022-08-31T01:15:13.833Z,1022.25
2022-08-31T01:16:14.043Z,1022.21
2022-08-31T01:17:14.164Z,1022.21
2022-08-31T01:18:14.329Z,1022.19
2022-08-31T01:19:14.505Z,1022.23
2022-08-31T01:20:14.676Z,1022.22
2022-08-31T01:21:14.831Z,1022.23
2022-08-31T01:22:15.042Z,1022.25
2022-08-31T01:23:15.197Z,1022.22
2022-08-31T01:24:15.362Z,1022.23
2022-08-31T01:25:15.538Z,1022.19
2022-08-31T01:26:15.696Z,1022.23
2022-08-31T01:27:15.857Z,1022.24
2022-08-31T01:28:16.021Z,1022.23
2022-08-31T01:29:17.353Z,1022.26
2022-08-31T01:30:16.369Z,1022.24
2022-08-31T01:31:16.593Z,1022.26
2022-08-31T01:32:16.709Z,1022.23
2022-08-31T01:33:17.060Z,1022.24
2022-08-31T01:34:17.073Z,1022.22
2022-08-31T01:35:17.240Z,1022.20
2022-08-31T01:36:17.402Z,1022.23
2022-08-31T01:37:17.567Z,1022.17
2022-08-31T01:38:17.730Z,1022.20
2022-08-31T01:39:17.900Z,1022.22
2022-08-31T01:40:18.122Z,1022.19
2022-08-31T01:41:18.224Z,1022.21
2022-08-31T01:42:18.423Z,1022.26
2022-08-31T01:43:18.752Z,1022.24
2022-08-31T01:44:18.814Z,1022.26
2022-08-31T01:45:18.938Z,1022.26
2022-08-31T01:46:19.147Z,1022.28
2022-08-31T01:47:19.301Z,1022.27
2022-08-31T01:48:19.465Z,1022.26
2022-08-31T01:49:19.643Z,1022.28
2022-08-31T01:50:19.806Z,1022.28
2022-08-31T01:51:19.967Z,1022.28
2022-08-31T01:52:20.123Z,1022.25
2022-08-31T01:53:20.279Z,1022.27
2022-08-31T01:54:20.457Z,1022.30
2022-08-31T01:55:20.608Z,1022.27
2022-08-31T01:56:20.768Z,1022.25
2022-08-31T01:57:24.423Z,1022.26
2022-08-31T01:58:22.109Z,1022.22
2022-08-31T01:59:21.330Z,1022.21
2022-08-31T02:00:21.489Z,1022.20
2022-08-31T02:01:33.822Z,1022.19
2022-08-31T02:02:22.875Z,1022.18
2022-08-31T02:03:21.981Z,1022.20
2022-08-31T02:04:22.193Z,1022.19
2022-08-31T02:05:22.352Z,1022.17
2022-08-31T02:06:22.515Z,1022.13
2022-08-31T02:07:22.666Z,1022.15
2022-08-31T02:08:22.862Z,1022.15
2022-08-31T02:09:23.040Z,1022.12
2022-08-31T02:10:23.194Z,1022.15
2022-08-31T02:11:23.383Z,1022.14
2022-08-31T02:12:23.574Z,1022.13
2022-08-31T02:13:23.735Z,1022.19
2022-08-31T02:14:23.915Z,1022.17
2022-08-31T02:15:24.069Z,1022.17
2022-08-31T02:16:24.281Z,1022.19
2022-08-31T02:17:24.413Z,1022.17
2022-08-31T02:18:24.566Z,1022.15
2022-08-31T02:19:24.756Z,1022.17
2022-08-31T02:20:24.916Z,1022.14
2022-08-31T02:21:25.089Z,1022.11
2022-08-31T02:22:25.246Z,1022.08
2022-08-31T02:23:25.403Z,1022.11
2022-08-31T02:24:25.607Z,1022.10
2022-08-31T02:25:25.779Z,1022.10
2022-08-31T02:26:25.940Z,1022.06
2022-08-31T02:27:26.093Z,1022.07
2022-08-31T02:28:26.294Z,1022.07
2022-08-31T02:29:26.490Z,1022.05
2022-08-31T02:30:26.614Z,1022.08
2022-08-31T02:31:26.821Z,1022.04
2022-08-31T02:32:26.950Z,1022.07
2022-08-31T02:33:27.112Z,1022.05
2022-08-31T02:34:27.292Z,1022.09
2022-08-31T02:35:27.463Z,1022.12
2022-08-31T02:36:27.622Z,1022.13
2022-08-31T02:37:27.782Z,1022.11
2022-08-31T02:38:27.973Z,1022.15
2022-08-31T02:39:28.150Z,1022.13
2022-08-31T02:40:28.406Z,1022.09
2022-08-31T02:41:28.483Z,1022.09
2022-08-31T02:42:32.894Z,1022.05
2022-08-31T02:43:29.823Z,1022.11
2022-08-31T02:44:29.014Z,1022.09
2022-08-31T02:45:29.175Z,1022.11
2022-08-31T02:46:29.411Z,1022.10
2022-08-31T02:47:29.497Z,1022.11
2022-08-31T02:48:29.656Z,1022.12
2022-08-31T02:49:29.822Z,1022.09
2022-08-31T02:50:29.988Z,1022.11
2022-08-31T02:51:30.147Z,1022.11
2022-08-31T02:52:30.308Z,1022.15
2022-08-31T02:53:30.468Z,1022.08
2022-08-31T02:54:30.632Z,1022.10
2022-08-31T02:55:30.806Z,1022.12
2022-08-31T02:56:30.966Z,1022.13
2022-08-31T02:57:31.149Z,1022.07
2022-08-31T02:58:31.339Z,1022.10
2022-08-31T02:59:31.501Z,1022.09
2022-08-31T03:00:31.679Z,1022.05
2022-08-31T03:01:31.901Z,1022.04
2022-08-31T03:02:32.434Z,1022.04
2022-08-31T03:03:32.205Z,1022.01
2022-08-31T03:04:32.372Z,1022.02
2022-08-31T03:05:32.551Z,1022.01
2022-08-31T03:06:32.710Z,1021.99
2022-08-31T03:07:32.863Z,1021.92
2022-08-31T03:08:33.062Z,1021.94
2022-08-31T03:09:33.233Z,1021.95
2022-08-31T03:10:33.387Z,1021.94
2022-08-31T03:11:33.583Z,1021.93
2022-08-31T03:12:33.734Z,1021.92
2022-08-31T03:13:33.929Z,1021.92
2022-08-31T03:14:34.099Z,1021.90
2022-08-31T03:15:34.295Z,1021.92
2022-08-31T03:16:34.446Z,1021.93
2022-08-31T03:17:34.606Z,1021.90
2022-08-31T03:18:34.766Z,1021.92
2022-08-31T03:19:34.938Z,1021.90
2022-08-31T03:20:35.097Z,1021.89
2022-08-31T03:21:35.259Z,1021.85
2022-08-31T03:22:35.408Z,1021.88
2022-08-31T03:23:35.596Z,1021.89
2022-08-31T03:24:35.768Z,1021.88
2022-08-31T03:25:35.929Z,1021.90
2022-08-31T03:26:36.118Z,1021.92
2022-08-31T03:27:36.279Z,1021.91
2022-08-31T03:28:36.439Z,1021.91
2022-08-31T03:29:36.621Z,1021.94
2022-08-31T03:30:36.775Z,1021.96
2022-08-31T03:31:36.998Z,1021.95
2022-08-31T03:32:37.152Z,1021.96
2022-08-31T03:33:37.346Z,1021.97
2022-08-31T03:34:37.519Z,1021.94
2022-08-31T03:35:37.680Z,1021.98
2022-08-31T03:36:37.833Z,1021.99
2022-08-31T03:37:38.023Z,1022.02
2022-08-31T03:38:38.203Z,1021.98
2022-08-31T03:39:38.363Z,1022.01
2022-08-31T03:40:38.580Z,1022.05
2022-08-31T03:41:38.714Z,1022.03
2022-08-31T03:42:38.874Z,1022.09
2022-08-31T03:43:39.056Z,1022.07
2022-08-31T03:44:39.215Z,1022.04
2022-08-31T03:45:39.385Z,1022.05
2022-08-31T03:46:39.575Z,1022.06
2022-08-31T03:47:44.506Z,1022.05
2022-08-31T03:48:40.905Z,1022.05
2022-08-31T03:49:40.078Z,1022.08
2022-08-31T03:50:40.236Z,1022.12
2022-08-31T03:51:40.397Z,1022.12
2022-08-31T03:52:40.558Z,1022.16
2022-08-31T03:53:40.755Z,1022.13
2022-08-31T03:54:40.884Z,1022.16
2022-08-31T03:55:41.039Z,1022.14
2022-08-31T03:56:41.189Z,1022.22
2022-08-31T03:57:42.352Z,1022.20
2022-08-31T03:58:41.590Z,1022.20
2022-08-31T03:59:41.749Z,1022.17
2022-08-31T04:00:41.915Z,1022.19
2022-08-31T04:01:42.102Z,1022.18
2022-08-31T04:02:42.290Z,1022.25
2022-08-31T04:03:42.461Z,1022.23
2022-08-31T04:04:42.623Z,1022.26
2022-08-31T04:05:42.784Z,1022.26
2022-08-31T04:06:42.943Z,1022.29
2022-08-31T04:07:43.302Z,1022.27
2022-08-31T04:08:43.284Z,1022.24
2022-08-31T04:09:43.433Z,1022.27
2022-08-31T04:10:43.594Z,1022.30
2022-08-31T04:11:45.566Z,1022.29
2022-08-31T04:12:43.937Z,1022.26
2022-08-31T04:13:44.113Z,1022.30
2022-08-31T04:14:44.266Z,1022.29
2022-08-31T04:15:44.446Z,1022.32
2022-08-31T04:16:44.616Z,1022.32
2022-08-31T04:17:44.782Z,1022.34
2022-08-31T04:18:44.951Z,1022.34
2022-08-31T04:19:45.114Z,1022.39
2022-08-31T04:20:45.269Z,1022.37
2022-08-31T04:21:45.427Z,1022.37
2022-08-31T04:22:45.599Z,1022.40
2022-08-31T04:23:45.773Z,1022.38
2022-08-31T04:24:45.920Z,1022.40
2022-08-31T04:25:46.080Z,1022.41
2022-08-31T04:26:46.239Z,1022.41
2022-08-31T04:27:46.419Z,1022.42
2022-08-31T04:28:46.595Z,1022.47
2022-08-31T04:29:46.760Z,1022.45
2022-08-31T04:30:46.993Z,1022.43
2022-08-31T04:31:47.121Z,1022.45
2022-08-31T04:32:47.313Z,1022.39
2022-08-31T04:33:47.483Z,1022.47
2022-08-31T04:34:47.663Z,1022.47
2022-08-31T04:35:48.891Z,1022.49
2022-08-31T04:36:48.012Z,1022.51
2022-08-31T04:37:48.198Z,1022.52
2022-08-31T04:38:48.373Z,1022.52
2022-08-31T04:39:50.892Z,1022.52
2022-08-31T04:40:48.788Z,1022.54
2022-08-31T04:41:48.912Z,1022.55
2022-08-31T04:42:49.085Z,1022.51
2022-08-31T04:43:49.265Z,1022.52
2022-08-31T04:44:49.444Z,1022.48
2022-08-31T04:45:49.669Z,1022.50
2022-08-31T04:46:49.817Z,1022.47
2022-08-31T04:47:49.956Z,1022.46
2022-08-31T04:48:50.136Z,1022.49
2022-08-31T04:49:50.338Z,1022.47
2022-08-31T04:50:50.480Z,1022.50
2022-08-31T04:51:50.679Z,1022.43
2022-08-31T04:53:01.124Z,1022.45
2022-08-31T04:53:51.988Z,1022.45
2022-08-31T04:54:51.149Z,1022.45
2022-08-31T04:55:51.328Z,1022.45
2022-08-31T04:56:51.520Z,1022.42
2022-08-31T04:57:51.690Z,1022.44
2022-08-31T04:58:51.870Z,1022.41
2022-08-31T04:59:52.040Z,1022.43
2022-08-31T05:00:52.221Z,1022.42
2022-08-31T05:01:52.636Z,1022.43
2022-08-31T05:02:52.850Z,1022.40
2022-08-31T05:03:52.748Z,1022.39
2022-08-31T05:04:52.922Z,1022.39
2022-08-31T05:05:53.103Z,1022.38
2022-08-31T05:06:53.322Z,1022.37
2022-08-31T05:07:53.468Z,1022.39
2022-08-31T05:08:53.659Z,1022.42
2022-08-31T05:09:53.824Z,1022.46
2022-08-31T05:10:54.007Z,1022.45
2022-08-31T05:11:54.216Z,1022.45
2022-08-31T05:12:54.345Z,1022.48
2022-08-31T05:13:54.538Z,1022.46
2022-08-31T05:14:54.683Z,1022.46
2022-08-31T05:15:55.197Z,1022.49
2022-08-31T05:16:55.058Z,1022.49
2022-08-31T05:17:55.237Z,1022.47
2022-08-31T05:18:55.388Z,1022.49
2022-08-31T05:19:55.568Z,1022.50
2022-08-31T05:20:55.745Z,1022.51
2022-08-31T05:21:56.137Z,1022.52
2022-08-31T05:22:56.130Z,1022.57
2022-08-31T05:23:56.279Z,1022.57
2022-08-31T05:24:56.459Z,1022.55
2022-08-31T05:25:56.648Z,1022.50
2022-08-31T05:26:56.822Z,1022.53
2022-08-31T05:27:57.005Z,1022.52
2022-08-31T05:28:57.182Z,1022.57
2022-08-31T05:29:57.351Z,1022.55
2022-08-31T05:30:57.535Z,1022.57
2022-08-31T05:31:57.682Z,1022.58
2022-08-31T05:32:57.872Z,1022.61
2022-08-31T05:33:57.992Z,1022.61
2022-08-31T05:34:58.154Z,1022.59
2022-08-31T05:35:58.331Z,1022.61
2022-08-31T05:36:58.486Z,1022.59
2022-08-31T05:37:58.704Z,1022.60
2022-08-31T05:39:01.073Z,1022.62
2022-08-31T05:39:59.107Z,1022.60
2022-08-31T05:40:59.144Z,1022.59
2022-08-31T05:41:59.344Z,1022.65
2022-08-31T05:42:59.602Z,1022.63
2022-08-31T05:43:59.676Z,1022.64
2022-08-31T05:44:59.835Z,1022.65
2022-08-31T05:46:00.007Z,1022.59
2022-08-31T05:47:04.092Z,1022.64
2022-08-31T05:48:00.357Z,1022.65
2022-08-31T05:49:00.526Z,1022.65
2022-08-31T05:50:00.678Z,1022.62
2022-08-31T05:51:00.868Z,1022.65
2022-08-31T05:52:01.066Z,1022.64
2022-08-31T05:53:01.260Z,1022.63
2022-08-31T05:54:01.469Z,1022.69
2022-08-31T05:55:01.613Z,1022.64
2022-08-31T05:56:01.809Z,1022.67
2022-08-31T05:57:01.961Z,1022.64
2022-08-31T05:58:02.151Z,1022.69
2022-08-31T05:59:02.321Z,1022.68
2022-08-31T06:00:02.491Z,1022.68
2022-08-31T06:01:02.677Z,1022.73
2022-08-31T06:02:02.920Z,1022.74
2022-08-31T06:03:03.020Z,1022.71
2022-08-31T06:04:03.200Z,1022.72
2022-08-31T06:05:03.424Z,1022.71
2022-08-31T06:06:03.537Z,1022.73
2022-08-31T06:07:03.723Z,1022.76
2022-08-31T06:08:03.922Z,1022.75
2022-08-31T06:09:04.097Z,1022.71
2022-08-31T06:10:04.360Z,1022.67
2022-08-31T06:11:04.432Z,1022.73
2022-08-31T06:12:04.589Z,1022.71
2022-08-31T06:13:04.776Z,1022.71
2022-08-31T06:14:04.985Z,1022.76
2022-08-31T06:15:05.149Z,1022.75
2022-08-31T06:16:05.403Z,1022.74
2022-08-31T06:17:05.519Z,1022.76
2022-08-31T06:18:05.718Z,1022.77
2022-08-31T06:19:05.918Z,1022.76
2022-08-31T06:20:06.066Z,1022.77
2022-08-31T06:21:06.219Z,1022.82
2022-08-31T06:22:06.378Z,1022.79
2022-08-31T06:23:06.541Z,1022.74
2022-08-31T06:24:06.741Z,1022.81
2022-08-31T06:25:06.880Z,1022.80
2022-08-31T06:26:07.087Z,1022.81
2022-08-31T06:27:07.231Z,1022.81
2022-08-31T06:28:07.425Z,1022.82
2022-08-31T06:29:07.591Z,1022.79
2022-08-31T06:30:07.774Z,1022.83
2022-08-31T06:31:07.955Z,1022.79
2022-08-31T06:32:08.354Z,1022.78
2022-08-31T06:33:08.257Z,1022.78
2022-08-31T06:34:08.463Z,1022.78
2022-08-31T06:35:08.604Z,1022.82
2022-08-31T06:36:08.798Z,1022.82
2022-08-31T06:37:10.862Z,1022.82
2022-08-31T06:38:10.145Z,1022.81
2022-08-31T06:39:09.349Z,1022.84
2022-08-31T06:40:09.532Z,1022.90
2022-08-31T06:41:09.645Z,1022.88
2022-08-31T06:42:09.834Z,1022.94
2022-08-31T06:43:10.025Z,1022.90
2022-08-31T06:44:10.205Z,1022.88
2022-08-31T06:45:10.396Z,1022.95
2022-08-31T06:46:10.589Z,1022.97
2022-08-31T06:47:10.707Z,1022.94
2022-08-31T06:48:10.911Z,1022.97
2022-08-31T06:49:11.049Z,1022.97
2022-08-31T06:50:11.263Z,1022.93
2022-08-31T06:51:11.416Z,1022.89
2022-08-31T06:52:11.599Z,1022.96
2022-08-31T06:53:11.863Z,1022.93
2022-08-31T06:54:28.527Z,1022.98
2022-08-31T06:55:13.140Z,1022.99
2022-08-31T06:56:20.255Z,1022.95
2022-08-31T06:57:13.480Z,1022.99
2022-08-31T06:58:12.681Z,1022.98
2022-08-31T06:59:12.816Z,1022.99
2022-08-31T07:00:13.001Z,1023.02
2022-08-31T07:01:13.217Z,1023.00
2022-08-31T07:02:13.579Z,1023.00
2022-08-31T07:03:13.609Z,1022.99
2022-08-31T07:04:13.753Z,1023.03
2022-08-31T07:05:15.755Z,1023.03
2022-08-31T07:06:15.102Z,1023.01
2022-08-31T07:07:14.280Z,1023.05
2022-08-31T07:08:14.461Z,1023.05
2022-08-31T07:09:14.612Z,1023.09
2022-08-31T07:10:14.772Z,1023.14
2022-08-31T07:11:14.932Z,1023.12
2022-08-31T07:12:15.093Z,1023.08
2022-08-31T07:13:15.263Z,1023.13
2022-08-31T07:14:15.435Z,1023.14
2022-08-31T07:15:15.594Z,1023.15
2022-08-31T07:16:15.830Z,1023.13
2022-08-31T07:17:15.917Z,1023.15
2022-08-31T07:18:16.104Z,1023.12
2022-08-31T07:19:16.266Z,1023.12
2022-08-31T07:20:16.426Z,1023.13
2022-08-31T07:21:16.590Z,1023.11
2022-08-31T07:22:16.768Z,1023.10
2022-08-31T07:23:16.920Z,1023.13
2022-08-31T07:24:17.099Z,1023.10
2022-08-31T07:25:17.290Z,1023.09
2022-08-31T07:26:17.447Z,1023.08
2022-08-31T07:27:17.627Z,1023.05
2022-08-31T07:28:17.776Z,1023.08
2022-08-31T07:29:17.938Z,1023.08
2022-08-31T07:30:18.109Z,1023.09
2022-08-31T07:31:18.332Z,1023.14
2022-08-31T07:32:18.465Z,1023.17
2022-08-31T07:33:18.732Z,1023.17
2022-08-31T07:34:18.815Z,1023.18
2022-08-31T07:35:18.978Z,1023.18
2022-08-31T07:36:19.151Z,1023.19
2022-08-31T07:37:19.351Z,1023.11
2022-08-31T07:38:19.512Z,1023.12
2022-08-31T07:39:19.677Z,1023.08
2022-08-31T07:40:19.860Z,1023.04
2022-08-31T07:41:20.042Z,1023.08
2022-08-31T07:42:20.241Z,1023.07
2022-08-31T07:43:20.582Z,1023.10
2022-08-31T07:44:20.567Z,1023.12
2022-08-31T07:45:20.735Z,1023.12
2022-08-31T07:46:20.964Z,1023.09
2022-08-31T07:47:22.602Z,1023.08
2022-08-31T07:48:21.266Z,1023.03
2022-08-31T07:49:21.425Z,1023.04
2022-08-31T07:50:21.590Z,1023.07
2022-08-31T07:51:21.789Z,1023.08
2022-08-31T07:52:21.936Z,1023.06
2022-08-31T07:53:22.502Z,1023.10
2022-08-31T07:54:22.263Z,1023.09
2022-08-31T07:55:22.453Z,1023.04
2022-08-31T07:56:22.609Z,1023.11
2022-08-31T07:57:22.809Z,1023.14
2022-08-31T07:58:22.971Z,1023.13
2022-08-31T07:59:23.141Z,1023.17
2022-08-31T08:00:23.358Z,1023.19
2022-08-31T08:01:23.496Z,1023.19
2022-08-31T08:02:23.705Z,1023.14
2022-08-31T08:03:23.849Z,1023.16
2022-08-31T08:04:23.981Z,1023.15
2022-08-31T08:05:25.124Z,1023.15
2022-08-31T08:06:24.332Z,1023.11
2022-08-31T08:07:24.483Z,1023.14
2022-08-31T08:08:24.661Z,1023.12
2022-08-31T08:09:25.279Z,1023.13
2022-08-31T08:10:25.014Z,1023.14
2022-08-31T08:11:25.183Z,1023.13
2022-08-31T08:12:25.353Z,1023.16
2022-08-31T08:13:25.515Z,1023.19
2022-08-31T08:14:25.665Z,1023.16
2022-08-31T08:15:25.845Z,1023.15
2022-08-31T08:16:26.044Z,1023.18
2022-08-31T08:17:26.203Z,1023.21
2022-08-31T08:18:26.395Z,1023.18
2022-08-31T08:19:26.545Z,1023.20
2022-08-31T08:20:37.756Z,1023.22
2022-08-31T08:21:27.904Z,1023.19
2022-08-31T08:22:50.961Z,1023.14
2022-08-31T08:23:29.049Z,1023.15
2022-08-31T08:24:27.430Z,1023.14
2022-08-31T08:25:27.588Z,1023.16
2022-08-31T08:26:27.797Z,1023.15
2022-08-31T08:27:27.969Z,1023.11
2022-08-31T08:28:39.128Z,1023.14
2022-08-31T08:29:29.320Z,1023.15
2022-08-31T08:30:28.480Z,1023.15
2022-08-31T08:31:28.761Z,1023.18
2022-08-31T08:32:28.841Z,1023.24
2022-08-31T08:33:29.010Z,1023.27
2022-08-31T08:34:31.690Z,1023.24
2022-08-31T08:35:29.361Z,1023.23
2022-08-31T08:36:29.533Z,1023.25
2022-08-31T08:37:54.328Z,1023.27
2022-08-31T08:38:30.852Z,1023.25
2022-08-31T08:39:30.034Z,1023.30
2022-08-31T08:40:30.306Z,1023.29
2022-08-31T08:41:30.331Z,1023.29
2022-08-31T08:42:30.509Z,1023.29
2022-08-31T08:43:31.106Z,1023.23
2022-08-31T08:44:30.889Z,1023.25
2022-08-31T08:45:31.047Z,1023.23
2022-08-31T08:46:35.298Z,1023.21
2022-08-31T08:47:38.624Z,1023.18
2022-08-31T08:48:32.550Z,1023.17
2022-08-31T08:49:31.750Z,1023.22
2022-08-31T08:50:31.899Z,1023.26
2022-08-31T08:51:32.107Z,1023.27
2022-08-31T08:52:32.253Z,1023.23
2022-08-31T08:53:32.431Z,1023.27
2022-08-31T08:54:32.627Z,1023.22
2022-08-31T08:55:32.756Z,1023.22
2022-08-31T08:56:34.175Z,1023.24
2022-08-31T08:57:33.145Z,1023.21
2022-08-31T08:58:33.313Z,1023.25
2022-08-31T08:59:33.528Z,1023.26
2022-08-31T09:00:33.679Z,1023.26
2022-08-31T09:01:33.899Z,1023.30
2022-08-31T09:02:34.098Z,1023.28
2022-08-31T09:03:34.196Z,1023.29
2022-08-31T09:04:34.364Z,1023.25
2022-08-31T09:05:34.536Z,1023.26
2022-08-31T09:06:40.605Z,1023.23
2022-08-31T09:07:35.886Z,1023.23
2022-08-31T09:08:35.047Z,1023.27
2022-08-31T09:09:35.247Z,1023.25
2022-08-31T09:10:35.389Z,1023.27
2022-08-31T09:11:35.584Z,1023.27
2022-08-31T09:12:35.729Z,1023.29
2022-08-31T09:13:35.918Z,1023.30
2022-08-31T09:14:36.130Z,1023.30
2022-08-31T09:15:36.638Z,1023.26
2022-08-31T09:16:36.487Z,1023.25
2022-08-31T09:17:36.602Z,1023.27
2022-08-31T09:18:36.795Z,1023.28
2022-08-31T09:19:36.971Z,1023.19
2022-08-31T09:20:37.128Z,1023.24
2022-08-31T09:21:37.445Z,1023.19
2022-08-31T09:22:37.485Z,1023.18
2022-08-31T09:23:37.673Z,1023.14
2022-08-31T09:24:37.873Z,1023.13
2022-08-31T09:25:38.054Z,1023.14
2022-08-31T09:26:38.194Z,1023.16
2022-08-31T09:27:38.384Z,1023.10
2022-08-31T09:28:38.566Z,1023.13
2022-08-31T09:29:38.758Z,1023.23
2022-08-31T09:30:38.956Z,1023.21
2022-08-31T09:31:39.144Z,1023.19
2022-08-31T09:32:39.272Z,1023.24
2022-08-31T09:33:39.450Z,1023.20
2022-08-31T09:34:39.647Z,1023.17
2022-08-31T09:35:39.830Z,1023.12
2022-08-31T09:36:40.019Z,1023.11
2022-08-31T09:37:40.197Z,1023.18
2022-08-31T09:38:40.376Z,1023.18
2022-08-31T09:39:40.564Z,1023.16
2022-08-31T09:40:40.783Z,1023.17
2022-08-31T09:41:40.930Z,1023.12
2022-08-31T09:42:41.081Z,1023.17
2022-08-31T09:43:41.381Z,1023.14
2022-08-31T09:44:41.476Z,1023.09
2022-08-31T09:45:42.658Z,1023.08
2022-08-31T09:46:41.791Z,1023.05
2022-08-31T09:47:41.991Z,1023.11
2022-08-31T09:48:42.134Z,1023.08
2022-08-31T09:49:42.341Z,1023.13
2022-08-31T09:50:42.482Z,1023.13
2022-08-31T09:51:42.663Z,1023.14
2022-08-31T09:52:42.856Z,1023.12
2022-08-31T09:53:43.054Z,1023.16
2022-08-31T09:54:46.967Z,1023.14
2022-08-31T09:55:43.374Z,1023.14
2022-08-31T09:56:43.546Z,1023.17
2022-08-31T09:57:43.736Z,1023.10
2022-08-31T09:58:43.901Z,1023.10
2022-08-31T09:59:44.121Z,1023.11
2022-08-31T10:00:44.215Z,1023.11
2022-08-31T10:01:44.527Z,1023.00
2022-08-31T10:02:44.557Z,1023.02
2022-08-31T10:03:44.749Z,1023.05
2022-08-31T10:04:44.917Z,1023.03
2022-08-31T10:05:45.080Z,1023.06
2022-08-31T10:06:45.238Z,1023.04
2022-08-31T10:07:45.414Z,1023.00
2022-08-31T10:08:45.602Z,1023.01
2022-08-31T10:09:45.781Z,1022.98
2022-08-31T10:10:45.950Z,1022.97
2022-08-31T10:11:46.131Z,1022.97
2022-08-31T10:12:46.342Z,1022.98
2022-08-31T10:13:46.482Z,1022.97
2022-08-31T10:14:46.671Z,1022.97
2022-08-31T10:15:46.927Z,1022.94
2022-08-31T10:16:47.016Z,1022.97
2022-08-31T10:17:47.219Z,1022.99
2022-08-31T10:18:47.373Z,1023.01
2022-08-31T10:19:47.564Z,1022.98
2022-08-31T10:20:47.749Z,1022.99
2022-08-31T10:21:47.936Z,1022.95
2022-08-31T10:22:48.135Z,1022.90
2022-08-31T10:23:48.326Z,1022.95
2022-08-31T10:24:48.465Z,1022.96
2022-08-31T10:25:48.637Z,1023.01
2022-08-31T10:26:48.830Z,1023.00
2022-08-31T10:27:49.015Z,1023.06
2022-08-31T10:28:49.208Z,1022.98
2022-08-31T10:29:49.384Z,1023.01
2022-08-31T10:30:49.597Z,1023.01
2022-08-31T10:31:49.729Z,1022.98
2022-08-31T10:32:49.916Z,1023.00
2022-08-31T10:33:50.132Z,1023.03
2022-08-31T10:34:50.248Z,1023.00
2022-08-31T10:35:50.421Z,1023.00
2022-08-31T10:36:50.610Z,1023.01
2022-08-31T10:37:50.791Z,1023.00
2022-08-31T10:38:51.009Z,1022.97
2022-08-31T10:39:51.171Z,1022.97
2022-08-31T10:40:51.409Z,1022.90
2022-08-31T10:41:51.476Z,1022.91
2022-08-31T10:42:51.672Z,1022.90
2022-08-31T10:43:51.844Z,1022.90
2022-08-31T10:44:51.984Z,1022.88
2022-08-31T10:45:52.210Z,1022.86
2022-08-31T10:46:52.360Z,1022.90
2022-08-31T10:47:52.566Z,1022.90
2022-08-31T10:48:52.715Z,1022.91
2022-08-31T10:49:52.872Z,1022.92
2022-08-31T10:50:53.018Z,1022.90
2022-08-31T10:51:53.197Z,1022.90
2022-08-31T10:52:53.387Z,1022.90
2022-08-31T10:53:53.589Z,1022.92
2022-08-31T10:54:53.727Z,1022.86
2022-08-31T10:55:53.924Z,1022.86
2022-08-31T10:56:54.097Z,1022.86
2022-08-31T10:57:54.288Z,1022.87
2022-08-31T10:58:54.483Z,1022.84
2022-08-31T10:59:56.164Z,1022.86
2022-08-31T11:00:54.889Z,1022.84
2022-08-31T11:01:55.106Z,1022.84
2022-08-31T11:02:55.201Z,1022.83
2022-08-31T11:03:55.402Z,1022.86
2022-08-31T11:04:55.706Z,1022.83
2022-08-31T11:05:55.724Z,1022.79
2022-08-31T11:06:55.863Z,1022.78
2022-08-31T11:07:56.053Z,1022.76
2022-08-31T11:08:56.215Z,1022.74
2022-08-31T11:09:56.388Z,1022.77
2022-08-31T11:10:56.580Z,1022.75
2022-08-31T11:11:56.766Z,1022.74
2022-08-31T11:12:57.602Z,1022.74
2022-08-31T11:13:57.143Z,1022.73
2022-08-31T11:14:57.277Z,1022.75
2022-08-31T11:15:57.490Z,1022.72
2022-08-31T11:16:57.657Z,1022.66
2022-08-31T11:17:57.826Z,1022.65
2022-08-31T11:18:58.017Z,1022.67
2022-08-31T11:19:58.170Z,1022.70
2022-08-31T11:20:58.349Z,1022.71
2022-08-31T11:21:58.548Z,1022.68
2022-08-31T11:22:58.726Z,1022.64
2022-08-31T11:23:58.910Z,1022.68
2022-08-31T11:24:59.091Z,1022.64
2022-08-31T11:25:59.240Z,1022.68
2022-08-31T11:26:59.440Z,1022.65
2022-08-31T11:27:59.581Z,1022.66
2022-08-31T11:28:59.767Z,1022.67
2022-08-31T11:29:59.962Z,1022.62
2022-08-31T11:31:00.163Z,1022.62
2022-08-31T11:32:00.297Z,1022.62
2022-08-31T11:33:00.462Z,1022.57
2022-08-31T11:34:15.619Z,1022.54
2022-08-31T11:35:01.822Z,1022.55
2022-08-31T11:36:06.101Z,1022.54
2022-08-31T11:37:02.174Z,1022.58
2022-08-31T11:38:01.336Z,1022.60
2022-08-31T11:39:01.520Z,1022.61
2022-08-31T11:40:01.746Z,1022.64
2022-08-31T11:41:01.876Z,1022.63
2022-08-31T11:42:02.033Z,1022.58
2022-08-31T11:43:02.227Z,1022.52
2022-08-31T11:44:02.386Z,1022.51
2022-08-31T11:45:02.570Z,1022.57
2022-08-31T11:46:02.783Z,1022.57
2022-08-31T11:47:05.039Z,1022.58
2022-08-31T11:48:03.117Z,1022.54
2022-08-31T11:49:03.258Z,1022.55
2022-08-31T11:50:03.420Z,1022.55
2022-08-31T11:51:03.601Z,1022.49
2022-08-31T11:52:03.781Z,1022.48
2022-08-31T11:53:03.941Z,1022.46
2022-08-31T11:54:04.122Z,1022.44
2022-08-31T11:55:04.314Z,1022.49
2022-08-31T11:56:04.493Z,1022.49
2022-08-31T11:57:04.713Z,1022.49
2022-08-31T11:58:04.843Z,1022.47
2022-08-31T11:59:05.036Z,1022.42
2022-08-31T12:00:05.214Z,1022.44
2022-08-31T12:01:05.418Z,1022.45
2022-08-31T12:02:05.641Z,1022.34
2022-08-31T12:03:05.775Z,1022.42
2022-08-31T12:04:06.527Z,1022.41
2022-08-31T12:05:06.156Z,1022.42
2022-08-31T12:06:06.316Z,1022.44
2022-08-31T12:07:06.536Z,1022.35